Time;durP1;ratioP1;P1;durP2;ratioP2;P2;SDS_P1;SDS_P2;PMS_P1;PMS_P2;Temp;Humidity;BMP_temperature;BMP_pressure;BME280_temperature;BME280_humidity;BME280_pressure;Samples;Min_cycle;Max_cycle;Signal;HPM_P1;HPM_P2
2022/08/06 00:01:48;;;;;;;3.70;1.07;;;15.50;99.90;;;;;;5133524;28;20283;-70
2022/08/06 00:04:14;;;;;;;2.47;0.90;;;15.50;99.90;;;;;;5115368;28;20277;-70
2022/08/06 00:06:40;;;;;;;3.47;1.43;;;15.50;99.90;;;;;;5133608;28;20047;-72
2022/08/06 00:09:06;;;;;;;3.17;0.97;;;15.30;99.90;;;;;;5133638;28;20494;-70
2022/08/06 00:11:31;;;;;;;3.10;1.20;;;15.30;99.90;;;;;;5133558;28;20039;-70
2022/08/06 00:13:57;;;;;;;5.33;1.20;;;15.30;99.90;;;;;;5133010;28;20082;-70
2022/08/06 00:16:23;;;;;;;3.33;0.87;;;15.30;99.90;;;;;;5115803;28;20046;-70
2022/08/06 00:18:49;;;;;;;3.07;1.20;;;15.30;99.90;;;;;;5133229;28;20055;-70
2022/08/06 00:21:14;;;;;;;4.60;1.10;;;15.30;99.90;;;;;;5133205;28;20103;-70
2022/08/06 00:23:40;;;;;;;6.47;1.13;;;15.20;99.90;;;;;;5133482;28;20057;-70
2022/08/06 00:26:06;;;;;;;2.93;0.90;;;15.20;99.90;;;;;;5133344;28;20079;-70
2022/08/06 00:28:32;;;;;;;2.53;1.10;;;15.20;99.90;;;;;;5133514;28;20039;-70
2022/08/06 00:30:59;;;;;;;3.00;1.23;;;15.20;99.90;;;;;;5133111;28;20043;-70
2022/08/06 00:33:25;;;;;;;2.20;1.03;;;15.20;99.90;;;;;;5133532;28;20108;-70
2022/08/06 00:35:50;;;;;;;2.67;0.80;;;15.20;99.90;;;;;;5134153;27;20756;-70
2022/08/06 00:38:16;;;;;;;4.03;0.97;;;15.20;99.90;;;;;;5137284;27;20047;-70
2022/08/06 00:40:42;;;;;;;2.53;0.90;;;15.20;99.90;;;;;;5137257;27;20047;-70
2022/08/06 00:43:08;;;;;;;4.13;0.93;;;15.10;99.90;;;;;;5136894;27;20043;-70
2022/08/06 00:45:34;;;;;;;3.20;0.83;;;15.00;99.90;;;;;;5137453;27;20105;-70
2022/08/06 00:48:00;;;;;;;4.27;1.00;;;15.00;99.90;;;;;;5136835;27;20401;-70
2022/08/06 00:50:27;;;;;;;4.23;0.83;;;15.00;99.90;;;;;;5136879;27;20842;-70
2022/08/06 00:52:53;;;;;;;3.70;0.80;;;15.00;99.90;;;;;;5136702;27;20308;-70
2022/08/06 00:55:19;;;;;;;3.27;0.90;;;14.90;99.90;;;;;;5136958;27;20273;-70
2022/08/06 00:57:46;;;;;;;3.73;1.00;;;14.90;99.90;;;;;;5136949;27;20280;-70
2022/08/06 01:00:12;;;;;;;2.57;0.80;;;14.80;99.90;;;;;;5136639;27;20043;-70
2022/08/06 01:02:38;;;;;;;2.07;0.90;;;14.80;99.90;;;;;;5136985;27;20381;-70
2022/08/06 01:05:04;;;;;;;3.17;0.90;;;14.80;99.90;;;;;;5136472;27;20780;-70
2022/08/06 01:07:30;;;;;;;2.83;0.80;;;14.70;99.90;;;;;;5136714;27;20043;-70
2022/08/06 01:09:56;;;;;;;1.53;0.63;;;14.80;99.90;;;;;;5136287;27;20303;-70
2022/08/06 01:12:21;;;;;;;3.10;1.00;;;14.80;99.90;;;;;;5136627;27;20541;-70
2022/08/06 01:14:47;;;;;;;5.23;1.10;;;14.80;99.90;;;;;;5136587;27;20047;-70
2022/08/06 01:17:36;;;;;;;3.30;0.83;;;14.80;99.90;;;;;;5136637;27;20043;-70
2022/08/06 01:20:28;;;;;;;4.07;1.07;;;14.80;99.90;;;;;;5135728;27;20057;-70
2022/08/06 01:23:05;;;;;;;1.80;0.80;;;14.70;99.90;;;;;;5136111;27;20281;-70
2022/08/06 01:25:59;;;;;;;4.60;1.00;;;14.70;99.90;;;;;;5136456;27;20265;-70
2022/08/06 01:28:30;;;;;;;2.70;1.10;;;14.70;99.90;;;;;;5136545;27;20280;-70
2022/08/06 01:31:11;;;;;;;1.50;0.80;;;14.60;99.90;;;;;;5135972;27;20304;-70
2022/08/06 01:33:42;;;;;;;3.67;0.93;;;14.60;99.90;;;;;;5136494;27;20321;-70
2022/08/06 01:36:14;;;;;;;4.07;1.00;;;14.60;99.90;;;;;;5135933;27;20284;-70
2022/08/06 01:38:44;;;;;;;2.60;0.80;;;14.50;99.90;;;;;;5136224;27;20307;-70
2022/08/06 01:41:38;;;;;;;2.60;0.80;;;14.50;99.90;;;;;;5135862;27;20276;-70
2022/08/06 01:44:01;;;;;;;2.37;0.80;;;14.50;99.90;;;;;;5135608;27;20351;-70
2022/08/06 01:46:27;;;;;;;3.20;1.00;;;14.40;99.90;;;;;;5135991;27;20285;-70
2022/08/06 01:48:54;;;;;;;2.10;1.00;;;14.40;99.90;;;;;;5134752;27;20371;-72
2022/08/06 01:51:22;;;;;;;3.47;1.27;;;14.40;99.90;;;;;;5135745;27;20047;-70
2022/08/06 01:53:48;;;;;;;2.80;0.90;;;14.40;99.90;;;;;;5135786;27;20281;-70
2022/08/06 01:56:15;;;;;;;3.57;1.03;;;14.40;99.90;;;;;;5135430;27;20283;-70
2022/08/06 01:58:43;;;;;;;2.17;1.20;;;14.30;99.90;;;;;;5135708;27;20088;-70
2022/08/06 02:01:12;;;;;;;4.23;1.23;;;14.30;99.90;;;;;;5135420;27;20651;-70
2022/08/06 02:03:44;;;;;;;3.40;1.27;;;14.30;99.90;;;;;;5135641;27;20273;-70
2022/08/06 02:06:13;;;;;;;5.43;1.10;;;14.30;99.90;;;;;;5135381;27;20280;-70
2022/08/06 02:08:41;;;;;;;4.33;1.20;;;14.30;99.90;;;;;;5117488;27;20367;-70
2022/08/06 02:11:10;;;;;;;2.93;1.30;;;14.20;99.90;;;;;;5135183;27;20284;-70
2022/08/06 02:13:37;;;;;;;2.73;1.30;;;14.20;99.90;;;;;;5135479;27;20775;-70
2022/08/06 02:16:07;;;;;;;3.67;1.10;;;14.20;99.90;;;;;;5135168;27;20273;-70
2022/08/06 02:18:37;;;;;;;5.47;1.73;;;14.20;99.90;;;;;;5135512;27;20289;-70
2022/08/06 02:21:09;;;;;;;3.27;1.37;;;14.20;99.90;;;;;;5135059;27;20269;-70
2022/08/06 02:23:36;;;;;;;5.23;1.50;;;14.20;99.90;;;;;;5135248;27;20310;-70
2022/08/06 02:26:04;;;;;;;3.90;1.20;;;14.20;99.90;;;;;;5134836;27;20730;-70
2022/08/06 02:28:33;;;;;;;3.57;1.27;;;14.10;99.90;;;;;;5135279;27;20280;-70
2022/08/06 02:30:59;;;;;;;4.37;1.67;;;14.10;99.90;;;;;;5134440;27;20687;-71
2022/08/06 02:33:25;;;;;;;4.10;1.43;;;14.10;99.90;;;;;;5134990;27;20281;-70
2022/08/06 02:36:00;;;;;;;5.00;1.40;;;14.00;99.90;;;;;;5134942;27;20277;-70
2022/08/06 02:38:33;;;;;;;2.75;1.15;;;14.10;99.90;;;;;;5135332;27;20352;-70
2022/08/06 02:41:16;;;;;;;2.93;1.40;;;14.00;99.90;;;;;;5134831;27;20043;-72
2022/08/06 02:43:49;;;;;;;4.33;1.30;;;14.00;99.90;;;;;;5135050;27;20390;-70
2022/08/06 02:46:31;;;;;;;3.27;1.33;;;14.00;99.90;;;;;;5134504;27;20326;-70
2022/08/06 02:49:26;;;;;;;5.63;1.60;;;13.90;99.90;;;;;;5134883;27;20315;-70
2022/08/06 02:51:58;;;;;;;1.92;1.38;;;13.90;99.90;;;;;;5134752;27;20297;-70
2022/08/06 02:54:32;;;;;;;2.53;1.40;;;13.90;99.90;;;;;;5134361;27;20127;-70
2022/08/06 02:57:02;;;;;;;3.63;1.40;;;13.90;99.90;;;;;;5134603;27;20273;-70
2022/08/06 02:59:32;;;;;;;3.30;1.30;;;13.80;99.90;;;;;;5134502;27;20050;-70
2022/08/06 03:02:01;;;;;;;2.50;1.30;;;13.80;99.90;;;;;;5134641;27;20276;-70
2022/08/06 03:04:29;;;;;;;3.17;1.30;;;13.80;99.90;;;;;;5134219;27;20281;-70
2022/08/06 03:06:58;;;;;;;3.50;1.37;;;13.80;99.90;;;;;;5134183;27;20628;-70
2022/08/06 03:09:25;;;;;;;3.20;1.30;;;13.70;99.90;;;;;;5134101;27;20359;-70
2022/08/06 03:11:52;;;;;;;2.07;1.20;;;13.70;99.90;;;;;;5134243;27;20701;-70
2022/08/06 03:14:19;;;;;;;3.57;1.47;;;13.70;99.90;;;;;;5133968;27;20340;-70
2022/08/06 03:16:46;;;;;;;3.97;1.20;;;13.60;99.90;;;;;;5134244;27;20288;-70
2022/08/06 03:19:13;;;;;;;3.40;1.27;;;13.70;99.90;;;;;;5133984;27;20328;-70
2022/08/06 03:21:41;;;;;;;4.03;1.33;;;13.70;99.90;;;;;;5134446;27;20288;-70
2022/08/06 03:24:08;;;;;;;5.80;1.53;;;13.70;99.90;;;;;;5115830;27;20277;-70
2022/08/06 03:26:36;;;;;;;3.40;1.47;;;13.60;99.90;;;;;;5134281;27;20359;-70
2022/08/06 03:29:02;;;;;;;4.20;1.30;;;13.60;99.90;;;;;;5134261;27;20285;-70
2022/08/06 03:31:30;;;;;;;3.77;1.43;;;13.60;99.90;;;;;;5133671;27;20384;-70
2022/08/06 03:33:57;;;;;;;4.73;1.80;;;13.60;99.90;;;;;;5115843;28;20295;-70
2022/08/06 03:36:24;;;;;;;3.13;1.30;;;13.50;99.90;;;;;;5133675;27;20752;-70
2022/08/06 03:39:06;;;;;;;2.67;1.20;;;13.60;99.90;;;;;;5134161;27;20325;-70
2022/08/06 03:41:35;;;;;;;2.97;1.10;;;13.60;99.90;;;;;;5133940;27;20356;-70
2022/08/06 03:44:01;;;;;;;3.77;1.47;;;13.60;99.90;;;;;;5133981;28;20644;-70
2022/08/06 03:46:44;;;;;;;3.87;1.50;;;13.60;99.90;;;;;;5133263;28;21136;-70
2022/08/06 03:49:16;;;;;;;4.23;1.40;;;13.60;99.90;;;;;;5115419;28;20636;-70
2022/08/06 03:51:44;;;;;;;3.73;1.60;;;13.60;99.90;;;;;;5133880;28;20365;-70
2022/08/06 03:54:13;;;;;;;2.80;1.43;;;13.60;99.90;;;;;;5133470;28;20312;-71
2022/08/06 03:56:41;;;;;;;2.07;1.07;;;13.60;99.90;;;;;;5133843;28;20272;-70
2022/08/06 03:59:08;;;;;;;3.80;1.43;;;13.70;99.90;;;;;;5133896;28;20372;-70
2022/08/06 04:01:40;;;;;;;4.83;1.60;;;13.70;99.90;;;;;;5133635;28;20280;-71
2022/08/06 04:04:07;;;;;;;3.50;1.60;;;13.70;99.90;;;;;;5133901;28;20322;-70
2022/08/06 04:06:33;;;;;;;5.10;1.80;;;13.70;99.90;;;;;;5133391;28;20277;-70
2022/08/06 04:08:59;;;;;;;6.17;1.70;;;13.70;99.90;;;;;;5133628;28;20273;-70
2022/08/06 04:11:26;;;;;;;2.70;1.50;;;13.70;99.90;;;;;;5135391;27;20365;-70
2022/08/06 04:13:53;;;;;;;4.83;1.83;;;13.70;99.90;;;;;;5137910;27;20273;-70
2022/08/06 04:16:20;;;;;;;3.43;1.77;;;13.70;99.90;;;;;;5137496;27;20720;-70
2022/08/06 04:18:46;;;;;;;3.60;1.80;;;13.70;99.90;;;;;;5137806;27;20281;-70
2022/08/06 04:21:16;;;;;;;3.00;1.80;;;13.70;99.90;;;;;;5137402;27;20359;-71
2022/08/06 04:23:42;;;;;;;4.73;1.60;;;13.60;99.90;;;;;;5137840;27;20308;-70
2022/08/06 04:26:11;;;;;;;6.33;1.90;;;13.60;99.90;;;;;;5137625;27;20281;-70
2022/08/06 04:28:41;;;;;;;3.30;1.73;;;13.70;99.90;;;;;;5137307;27;20281;-70
2022/08/06 04:31:09;;;;;;;2.37;1.50;;;13.70;99.90;;;;;;5137096;27;20772;-70
2022/08/06 04:33:35;;;;;;;5.27;1.63;;;13.60;99.90;;;;;;5137099;27;20277;-70
2022/08/06 04:36:07;;;;;;;6.97;1.63;;;13.60;99.90;;;;;;5137379;27;20273;-70
2022/08/06 04:38:34;;;;;;;4.17;1.67;;;13.60;99.90;;;;;;5118904;27;20296;-70
2022/08/06 04:41:01;;;;;;;7.43;1.50;;;13.60;99.90;;;;;;5137400;27;20277;-70
2022/08/06 04:43:27;;;;;;;5.07;1.67;;;13.60;99.90;;;;;;5136919;27;20277;-70
2022/08/06 04:45:53;;;;;;;5.17;1.87;;;13.60;99.90;;;;;;5118978;27;20342;-70
2022/08/06 04:48:19;;;;;;;3.30;1.67;;;13.60;99.90;;;;;;5136863;27;20290;-70
2022/08/06 04:50:45;;;;;;;3.50;1.60;;;13.70;99.90;;;;;;5137265;27;20293;-70
2022/08/06 04:53:13;;;;;;;4.10;1.70;;;13.70;99.90;;;;;;5136998;27;20309;-70
2022/08/06 04:55:40;;;;;;;4.50;1.70;;;13.80;99.90;;;;;;5136830;27;20054;-71
2022/08/06 04:58:08;;;;;;;2.87;1.80;;;13.90;99.90;;;;;;5136921;27;20285;-70
2022/08/06 05:00:38;;;;;;;6.10;1.53;;;13.90;99.90;;;;;;5136597;27;20272;-70
2022/08/06 05:03:04;;;;;;;4.03;1.80;;;13.90;99.90;;;;;;5136802;27;20767;-71
2022/08/06 05:05:35;;;;;;;4.10;1.73;;;14.00;99.90;;;;;;5118334;27;20288;-70
2022/08/06 05:08:02;;;;;;;4.63;1.80;;;13.90;99.90;;;;;;5136915;27;20265;-70
2022/08/06 05:10:47;;;;;;;3.07;1.53;;;14.00;99.90;;;;;;5136272;27;20308;-70
2022/08/06 05:13:15;;;;;;;3.83;1.63;;;14.00;99.90;;;;;;5136792;27;20273;-70
2022/08/06 05:15:45;;;;;;;3.43;1.80;;;14.00;99.90;;;;;;5136310;27;20039;-70
2022/08/06 05:18:19;;;;;;;4.30;1.70;;;14.00;99.90;;;;;;5136225;27;20285;-70
2022/08/06 05:20:49;;;;;;;6.97;2.20;;;14.00;99.90;;;;;;5136777;27;20277;-70
2022/08/06 05:23:26;;;;;;;3.83;1.80;;;14.00;99.90;;;;;;5135219;27;20327;-70
2022/08/06 05:25:52;;;;;;;5.10;1.80;;;14.10;99.90;;;;;;5136756;27;20265;-70
2022/08/06 05:28:18;;;;;;;6.33;1.77;;;14.10;99.90;;;;;;5118014;27;20338;-70
2022/08/06 05:30:45;;;;;;;3.60;1.70;;;14.10;99.90;;;;;;5135922;27;20505;-70
2022/08/06 05:33:21;;;;;;;3.13;1.80;;;14.30;99.90;;;;;;5136276;27;20364;-70
2022/08/06 05:35:47;;;;;;;3.60;1.80;;;14.40;99.90;;;;;;5136556;27;20273;-70
2022/08/06 05:38:12;;;;;;;6.13;1.50;;;14.60;99.90;;;;;;5136164;27;20756;-70
2022/08/06 05:40:39;;;;;;;4.77;1.60;;;14.80;99.90;;;;;;5135797;27;20091;-71
2022/08/06 05:43:05;;;;;;;3.90;1.50;;;15.00;99.90;;;;;;5136158;27;20429;-71
2022/08/06 05:45:31;;;;;;;5.37;1.40;;;15.10;99.90;;;;;;5135756;27;20291;-70
2022/08/06 05:48:00;;;;;;;4.50;1.30;;;15.10;99.90;;;;;;5135917;27;20050;-70
2022/08/06 05:50:34;;;;;;;4.33;1.37;;;15.10;99.90;;;;;;5135542;27;20280;-71
2022/08/06 05:53:12;;;;;;;4.25;1.58;;;15.10;99.90;;;;;;5136044;27;20319;-70
2022/08/06 05:55:48;;;;;;;4.33;1.60;;;15.20;99.90;;;;;;5135586;27;20118;-71
2022/08/06 05:58:31;;;;;;;5.03;1.43;;;15.70;99.90;;;;;;5135962;27;20277;-71
2022/08/06 06:01:01;;;;;;;4.53;1.40;;;17.00;99.90;;;;;;5136021;27;20291;-71
2022/08/06 06:03:27;;;;;;;4.00;1.43;;;18.60;99.90;;;;;;5135463;27;20272;-72
2022/08/06 06:05:58;;;;;;;5.27;1.67;;;;;;;;;;5135867;27;20283;-71
2022/08/06 06:08:24;;;;;;;4.63;1.30;;;21.60;99.90;;;;;;5135723;27;20043;-71
2022/08/06 06:10:50;;;;;;;2.73;1.40;;;22.70;99.90;;;;;;5135314;27;20047;-71
2022/08/06 06:13:16;;;;;;;8.07;1.50;;;23.50;99.90;;;;;;5135590;27;20051;-71
2022/08/06 06:16:16;;;;;;;4.00;1.40;;;24.10;94.10;;;;;;5135134;27;20130;-72
2022/08/06 06:19:14;;;;;;;2.87;1.20;;;25.10;69.70;;;;;;5134796;27;20134;-72
2022/08/06 06:22:21;;;;;;;3.30;1.30;;;25.90;68.20;;;;;;5130071;27;20404;-72
2022/08/06 06:24:50;;;;;;;4.37;1.40;;;;;;;;;;5084622;27;20079;-72
2022/08/06 06:27:37;;;;;;;2.73;1.33;;;27.30;74.80;;;;;;5135135;27;20039;-72
2022/08/06 06:30:22;;;;;;;3.30;1.00;;;28.20;50.50;;;;;;5135032;27;20046;-70
2022/08/06 06:33:10;;;;;;;;;;;28.50;57.40;;;;;;5135562;27;20195;-70
2022/08/06 06:35:52;;;;;;;4.87;1.33;;;;;;;;;;5134772;27;20368;-70
2022/08/06 06:38:34;;;;;;;2.67;1.20;;;29.40;68.10;;;;;;5134982;27;20050;-70
2022/08/06 06:41:23;;;;;;;2.60;1.10;;;29.90;46.40;;;;;;5135090;27;20127;-70
2022/08/06 06:43:55;;;;;;;4.23;1.23;;;30.40;46.60;;;;;;5134698;27;20050;-70
2022/08/06 06:46:41;;;;;;;2.95;1.20;;;31.00;45.70;;;;;;5134822;27;20047;-70
2022/08/06 06:49:10;;;;;;;3.78;1.70;;;;;;;;;;5134484;27;20050;-70
2022/08/06 06:51:49;;;;;;;3.28;1.25;;;31.10;43.80;;;;;;5134392;27;20047;-70
2022/08/06 06:54:27;;;;;;;5.07;1.40;;;;;;;;;;5116779;27;20126;-70
2022/08/06 06:56:55;;;;;;;3.90;1.50;;;;;;;;;;5134401;27;20126;-70
2022/08/06 06:59:30;;;;;;;3.70;1.73;;;;;;;;;;5134511;27;20107;-70
2022/08/06 07:01:57;;;;;;;3.15;1.45;;;;;;;;;;5134481;27;20035;-70
2022/08/06 07:04:24;;;;;;;4.18;1.63;;;;;;;;;;5116419;27;20482;-70
2022/08/06 07:06:54;;;;;;;4.10;1.70;;;32.30;40.50;;;;;;5134064;27;20093;-70
2022/08/06 07:09:24;;;;;;;3.88;1.67;;;32.60;40.50;;;;;;5134404;27;20479;-70
2022/08/06 07:11:53;;;;;;;3.75;1.88;;;32.50;40.30;;;;;;5133972;27;20415;-70
2022/08/06 07:14:22;;;;;;;6.80;2.13;;;;;;;;;;5134263;27;20043;-70
2022/08/06 07:16:50;;;;;;;4.93;1.75;;;33.00;38.20;;;;;;5134029;27;20047;-70
2022/08/06 07:19:18;;;;;;;4.95;1.95;;;33.10;39.30;;;;;;5134248;27;20093;-70
2022/08/06 07:21:46;;;;;;;4.38;1.75;;;33.00;39.20;;;;;;5133991;27;20041;-74
2022/08/06 07:24:14;;;;;;;4.82;2.22;;;33.30;39.10;;;;;;5134223;27;20095;-70
2022/08/06 07:26:45;;;;;;;4.47;1.88;;;34.20;53.80;;;;;;5133848;27;20058;-71
2022/08/06 07:29:12;;;;;;;2.95;1.75;;;34.20;37.30;;;;;;5134179;27;20072;-72
2022/08/06 07:31:40;;;;;;;3.60;1.88;;;34.00;36.60;;;;;;5133349;27;20446;-71
2022/08/06 07:34:06;;;;;;;4.43;2.17;;;33.90;36.50;;;;;;5134007;27;20054;-70
2022/08/06 07:36:36;;;;;;;5.20;2.40;;;34.00;36.40;;;;;;5115600;27;20466;-70
2022/08/06 07:39:08;;;;;;;3.17;1.88;;;34.20;35.00;;;;;;5116063;27;20479;-71
2022/08/06 07:41:35;;;;;;;4.13;2.30;;;34.20;35.00;;;;;;5134023;27;20039;-70
2022/08/06 07:44:02;;;;;;;4.95;2.38;;;34.40;35.30;;;;;;5134193;27;20051;-70
2022/08/06 07:46:34;;;;;;;4.45;2.22;;;34.30;34.90;;;;;;5133185;27;20061;-70
2022/08/06 07:49:04;;;;;;;4.85;2.00;;;34.30;35.10;;;;;;5133658;28;20051;-70
2022/08/06 07:51:33;;;;;;;5.32;2.58;;;34.30;34.40;;;;;;5134144;28;20054;-70
2022/08/06 07:54:00;;;;;;;4.00;2.50;;;34.40;34.50;;;;;;5115384;28;20138;-70
2022/08/06 07:56:27;;;;;;;5.25;2.38;;;34.50;34.60;;;;;;5115473;28;20403;-70
2022/08/06 07:58:54;;;;;;;3.92;2.58;;;;;;;;;;5133439;28;20487;-70
2022/08/06 08:01:20;;;;;;;4.78;2.55;;;;;;;;;;5133854;28;20160;-70
2022/08/06 08:06:31;;;;;;;4.53;2.20;;;34.20;32.80;;;;;;5133697;28;20130;-70
2022/08/06 08:09:20;;;;;;;4.15;2.20;;;33.60;34.00;;;;;;5133429;28;20086;-70
2022/08/06 08:11:46;;;;;;;4.45;2.17;;;33.60;34.30;;;;;;5133280;28;20032;-70
2022/08/06 08:14:15;;;;;;;3.95;1.90;;;34.00;33.80;;;;;;5133246;28;20425;-70
2022/08/06 08:16:42;;;;;;;4.80;2.20;;;33.60;33.50;;;;;;5133235;28;20073;-70
2022/08/06 08:19:22;;;;;;;5.57;2.00;;;;;;;;;;5133216;28;20138;-70
2022/08/06 08:21:48;;;;;;;3.97;2.17;;;;;;;;;;5133243;28;20039;-70
2022/08/06 08:24:15;;;;;;;4.15;1.90;;;30.50;69.30;;;;;;5133519;28;20051;-69
2022/08/06 08:26:41;;;;;;;5.78;1.90;;;30.20;37.40;;;;;;5115101;28;20055;-72
2022/08/06 08:29:07;;;;;;;3.00;1.90;;;29.90;37.80;;;;;;5134145;28;20050;-70
2022/08/06 08:31:33;;;;;;;4.22;1.90;;;29.50;38.60;;;;;;5115236;28;20372;-70
2022/08/06 08:33:59;;;;;;;4.93;1.77;;;28.70;42.20;;;;;;5133313;28;20050;-69
2022/08/06 08:36:24;;;;;;;5.18;1.75;;;27.90;40.50;;;;;;5115442;28;20467;-70
2022/08/06 08:38:52;;;;;;;4.28;1.85;;;27.50;41.60;;;;;;5133145;28;20490;-69
2022/08/06 08:41:26;;;;;;;3.80;1.75;;;27.30;41.70;;;;;;5133733;28;20055;-70
2022/08/06 08:44:04;;;;;;;5.43;2.22;;;27.10;42.50;;;;;;5132868;28;20076;-71
2022/08/06 08:46:43;;;;;;;4.55;1.73;;;26.80;42.60;;;;;;5133527;28;20051;-70
2022/08/06 08:49:20;;;;;;;3.20;1.70;;;26.60;43.50;;;;;;5133795;28;20067;-71
2022/08/06 08:51:46;;;;;;;3.58;1.60;;;26.50;43.40;;;;;;5133055;28;20050;-72
2022/08/06 08:54:16;;;;;;;3.95;1.88;;;26.20;43.40;;;;;;5133218;28;20050;-72
2022/08/06 08:56:44;;;;;;;3.28;1.50;;;25.90;44.10;;;;;;5133869;27;20085;-72
2022/08/06 08:59:10;;;;;;;3.92;1.83;;;25.60;43.40;;;;;;5118514;27;20055;-71
2022/08/06 09:01:35;;;;;;;4.47;2.28;;;25.50;43.50;;;;;;5136838;27;20107;-71
2022/08/06 09:04:04;;;;;;;3.60;2.00;;;25.20;44.10;;;;;;5136531;27;20454;-71
2022/08/06 09:06:32;;;;;;;3.80;1.63;;;25.00;44.60;;;;;;5136817;27;20050;-71
2022/08/06 09:09:04;;;;;;;4.70;1.85;;;24.80;45.20;;;;;;5136420;27;20099;-71
2022/08/06 09:11:31;;;;;;;3.20;1.77;;;24.60;45.70;;;;;;5136817;27;20046;-71
2022/08/06 09:14:01;;;;;;;3.27;1.40;;;24.40;46.50;;;;;;5136396;27;20406;-71
2022/08/06 09:16:28;;;;;;;5.90;1.90;;;24.10;47.50;;;;;;5136584;27;20047;-71
2022/08/06 09:18:54;;;;;;;4.67;1.90;;;23.90;48.00;;;;;;5136289;27;20055;-71
2022/08/06 09:21:20;;;;;;;4.80;1.70;;;23.70;48.90;;;;;;5136440;27;20047;-71
2022/08/06 09:23:46;;;;;;;5.80;2.00;;;23.70;49.50;;;;;;5136381;27;20096;-71
2022/08/06 09:26:12;;;;;;;4.07;1.90;;;23.90;48.70;;;;;;5136100;27;20053;-71
2022/08/06 09:28:40;;;;;;;3.23;1.50;;;23.80;48.10;;;;;;5136447;27;20039;-71
2022/08/06 09:31:13;;;;;;;4.87;2.00;;;23.80;48.70;;;;;;5135941;27;20039;-71
2022/08/06 09:34:03;;;;;;;5.90;1.90;;;23.60;48.40;;;;;;5117571;27;20515;-71
2022/08/06 09:36:41;;;;;;;2.93;1.50;;;23.80;48.00;;;;;;5125301;27;20483;-72
2022/08/06 09:39:08;;;;;;;8.67;2.20;;;23.60;48.60;;;;;;5135912;27;20047;-71
2022/08/06 09:41:34;;;;;;;3.83;1.80;;;23.50;48.60;;;;;;5136056;27;20043;-71
2022/08/06 09:44:10;;;;;;;3.70;1.70;;;23.60;48.90;;;;;;5135740;27;20050;-72
2022/08/06 09:46:36;;;;;;;3.70;2.00;;;23.60;49.20;;;;;;5117833;27;20050;-71
2022/08/06 09:49:03;;;;;;;4.33;1.70;;;23.60;48.90;;;;;;5135672;27;20043;-71
2022/08/06 09:51:30;;;;;;;5.73;1.70;;;23.40;48.30;;;;;;5135752;27;20031;-71
2022/08/06 09:53:59;;;;;;;4.17;1.90;;;23.50;48.50;;;;;;5135526;27;20054;-72
2022/08/06 09:56:28;;;;;;;4.30;1.93;;;23.40;48.80;;;;;;5135449;27;20058;-71
2022/08/06 09:59:03;;;;;;;5.30;1.90;;;23.40;48.20;;;;;;5135459;27;20047;-72
2022/08/06 10:01:29;;;;;;;4.55;2.05;;;23.50;47.40;;;;;;5136059;27;20093;-72
2022/08/06 10:03:57;;;;;;;5.73;1.90;;;23.60;47.70;;;;;;5135400;27;20082;-72
2022/08/06 10:06:23;;;;;;;6.10;2.10;;;23.70;47.80;;;;;;5117194;27;20104;-72
2022/08/06 10:09:03;;;;;;;7.80;2.20;;;23.70;47.70;;;;;;5134888;27;20082;-72
2022/08/06 10:11:33;;;;;;;5.00;2.40;;;23.50;47.60;;;;;;5135621;27;20035;-72
2022/08/06 10:13:59;;;;;;;5.23;2.30;;;23.50;48.20;;;;;;5134857;27;20560;-73
2022/08/06 10:16:29;;;;;;;4.43;2.00;;;23.30;48.50;;;;;;5135326;27;20089;-73
2022/08/06 10:18:57;;;;;;;6.03;2.30;;;23.10;49.00;;;;;;5135260;27;20051;-74
2022/08/06 10:21:28;;;;;;;5.10;2.27;;;23.00;49.30;;;;;;5135634;27;20051;-73
2022/08/06 10:24:00;;;;;;;6.10;2.43;;;22.80;49.70;;;;;;5135378;27;20380;-72
2022/08/06 10:26:29;;;;;;;5.10;2.10;;;22.80;49.80;;;;;;5135566;27;20043;-72
2022/08/06 10:29:04;;;;;;;4.00;1.90;;;22.70;49.20;;;;;;5135174;27;20050;-72
2022/08/06 10:31:31;;;;;;;4.50;2.03;;;22.60;49.40;;;;;;5135246;27;20051;-71
2022/08/06 10:34:08;;;;;;;6.53;2.43;;;22.50;48.60;;;;;;5134893;27;20039;-74
2022/08/06 10:36:51;;;;;;;6.40;2.50;;;22.30;49.00;;;;;;5116784;27;20054;-77
2022/08/06 10:39:22;;;;;;;6.40;2.20;;;22.20;49.90;;;;;;5134748;27;20043;-71
2022/08/06 10:41:48;;;;;;;4.73;2.33;;;22.10;51.10;;;;;;5135030;27;20043;-72
2022/08/06 10:44:14;;;;;;;4.77;2.60;;;22.20;51.60;;;;;;5134591;27;20122;-73
2022/08/06 10:46:42;;;;;;;5.83;2.70;;;22.20;52.50;;;;;;5134833;27;20520;-72
2022/08/06 10:49:08;;;;;;;5.47;2.50;;;22.20;52.60;;;;;;5134577;27;20062;-72
2022/08/06 10:51:36;;;;;;;5.17;2.70;;;22.20;52.90;;;;;;5134740;27;20096;-71
2022/08/06 10:54:03;;;;;;;5.40;2.70;;;22.30;53.50;;;;;;5134413;27;20051;-72
2022/08/06 10:56:29;;;;;;;5.60;1.93;;;22.30;53.50;;;;;;5134648;27;20130;-71
2022/08/06 10:58:56;;;;;;;3.90;2.33;;;22.40;53.60;;;;;;5134275;27;20047;-71
2022/08/06 11:01:43;;;;;;;4.93;2.60;;;22.50;53.50;;;;;;5134250;27;20142;-71
2022/08/06 11:04:23;;;;;;;4.43;2.50;;;22.60;53.00;;;;;;5134349;27;20100;-79
2022/08/06 11:07:16;;;;;;;6.77;2.73;;;22.70;53.40;;;;;;5134589;27;20395;-78
2022/08/06 11:09:56;;;;;;;6.50;3.03;;;22.80;53.60;;;;;;5116294;27;20051;-74
2022/08/06 11:13:16;;;;;;;6.13;2.50;;;22.90;53.40;;;;;;5116068;27;20047;-80
2022/08/06 11:15:43;;;;;;;4.13;2.40;;;22.90;53.70;;;;;;5030843;28;20124;-73
2022/08/06 11:18:12;;;;;;;4.60;2.40;;;22.70;53.10;;;;;;5113403;27;20055;-74
2022/08/06 11:20:41;;;;;;;3.83;2.00;;;22.70;53.40;;;;;;5133301;27;20043;-76
2022/08/06 11:23:13;;;;;;;5.33;2.07;;;22.60;53.50;;;;;;5133563;27;20487;-77
2022/08/06 11:25:50;;;;;;;5.60;2.30;;;22.60;53.20;;;;;;5116059;27;20051;-74
2022/08/06 11:28:39;;;;;;;4.60;2.40;;;22.50;53.90;;;;;;5133979;27;20095;-74
2022/08/06 11:31:07;;;;;;;4.67;2.40;;;22.50;53.40;;;;;;5133532;27;20501;-75
2022/08/06 11:33:33;;;;;;;4.30;2.37;;;22.40;53.70;;;;;;5133992;27;20233;-74
2022/08/06 11:36:04;;;;;;;4.30;2.10;;;22.30;53.70;;;;;;5134088;27;20130;-73
2022/08/06 11:38:47;;;;;;;3.50;1.90;;;22.20;54.60;;;;;;5133689;27;20455;-74
2022/08/06 11:41:21;;;;;;;5.23;2.30;;;22.10;55.50;;;;;;5133625;27;20043;-74
2022/08/06 11:43:53;;;;;;;5.40;2.00;;;22.10;55.80;;;;;;5134182;27;20047;-73
2022/08/06 11:46:32;;;;;;;4.53;2.27;;;22.20;56.00;;;;;;5133602;28;20135;-74
2022/08/06 11:49:04;;;;;;;3.73;2.20;;;22.30;56.10;;;;;;5133881;28;20493;-74
2022/08/06 11:51:58;;;;;;;6.80;2.23;;;22.30;55.10;;;;;;5133465;28;20043;-73
2022/08/06 11:54:36;;;;;;;4.68;2.60;;;22.20;54.60;;;;;;5132885;28;20057;-74
2022/08/06 11:57:02;;;;;;;4.00;2.30;;;22.20;53.70;;;;;;5133849;28;20176;-74
2022/08/06 11:59:33;;;;;;;8.17;2.03;;;22.00;54.30;;;;;;5133485;28;20207;-74
2022/08/06 12:02:02;;;;;;;3.50;1.77;;;22.00;54.80;;;;;;5133713;28;20042;-73
2022/08/06 12:04:42;;;;;;;6.13;2.00;;;21.90;55.40;;;;;;5115573;28;20121;-73
2022/08/06 12:07:20;;;;;;;4.07;2.07;;;21.90;55.20;;;;;;5133846;28;20126;-72
2022/08/06 12:10:01;;;;;;;4.57;2.27;;;22.00;55.20;;;;;;5133756;28;20051;-73
2022/08/06 12:12:30;;;;;;;6.53;2.10;;;22.00;54.10;;;;;;5133512;28;20043;-73
2022/08/06 12:14:57;;;;;;;4.10;1.90;;;22.00;54.00;;;;;;5133794;28;20050;-73
2022/08/06 12:17:26;;;;;;;5.53;2.33;;;22.00;53.20;;;;;;5133227;28;20457;-73
2022/08/06 12:19:54;;;;;;;4.10;2.23;;;22.00;52.90;;;;;;5133258;28;20077;-73
2022/08/06 12:22:21;;;;;;;3.40;2.13;;;22.00;52.80;;;;;;5133445;28;20058;-73
2022/08/06 12:24:54;;;;;;;4.33;2.23;;;22.10;53.00;;;;;;5133427;28;20527;-73
2022/08/06 12:27:23;;;;;;;4.00;2.33;;;22.10;53.00;;;;;;5133432;28;20059;-73
2022/08/06 12:29:56;;;;;;;6.27;2.20;;;22.20;52.90;;;;;;5133459;28;20435;-72
2022/08/06 12:32:34;;;;;;;5.37;2.33;;;22.10;52.80;;;;;;5135019;27;20478;-72
2022/08/06 12:35:03;;;;;;;4.63;2.50;;;22.00;53.60;;;;;;5137502;27;20043;-73
2022/08/06 12:37:40;;;;;;;3.57;2.20;;;22.00;53.80;;;;;;5136362;27;20153;-72
2022/08/06 12:40:29;;;;;;;4.13;2.07;;;22.00;53.30;;;;;;5137459;27;20131;-73
2022/08/06 12:43:10;;;;;;;5.23;2.30;;;21.80;53.90;;;;;;5119074;27;20039;-74
2022/08/06 12:45:37;;;;;;;3.90;2.20;;;21.70;53.60;;;;;;5136974;27;20074;-73
2022/08/06 12:48:11;;;;;;;4.73;2.30;;;21.70;53.90;;;;;;5136843;27;20046;-72
2022/08/06 12:50:42;;;;;;;4.93;3.03;;;21.80;54.40;;;;;;5136662;27;20082;-73
2022/08/06 12:53:16;;;;;;;4.77;2.57;;;21.90;54.30;;;;;;5137255;27;20308;-71
2022/08/06 12:55:55;;;;;;;7.03;2.88;;;21.90;54.60;;;;;;5137143;27;20043;-72
2022/08/06 12:58:35;;;;;;;3.83;2.30;;;22.10;54.50;;;;;;5136667;27;20042;-72
2022/08/06 13:01:01;;;;;;;4.67;2.13;;;22.20;53.80;;;;;;5137104;27;20039;-72
2022/08/06 13:03:29;;;;;;;4.47;2.00;;;22.20;53.30;;;;;;5118387;27;20496;-72
2022/08/06 13:05:58;;;;;;;3.80;2.60;;;22.10;53.60;;;;;;5136889;27;20095;-71
2022/08/06 13:08:25;;;;;;;4.87;2.50;;;22.10;54.00;;;;;;5136540;27;20078;-70
2022/08/06 13:10:53;;;;;;;5.90;2.40;;;22.00;53.20;;;;;;5136279;27;20544;-71
2022/08/06 13:13:20;;;;;;;4.87;2.57;;;22.00;53.60;;;;;;5136329;27;20039;-72